createdAt,value
2022-11-08T00:02:27.899Z,15.45
2022-11-08T00:04:57.222Z,15.49
2022-11-08T00:07:42.387Z,15.50
2022-11-08T00:10:28.469Z,15.50
2022-11-08T00:13:13.721Z,15.51
2022-11-08T00:15:41.587Z,15.52
2022-11-08T00:18:09.464Z,15.46
2022-11-08T00:20:38.737Z,15.56
2022-11-08T00:23:06.603Z,15.58
2022-11-08T00:25:34.528Z,15.58
2022-11-08T00:28:02.382Z,15.58
2022-11-08T00:30:31.062Z,15.58
2022-11-08T00:32:58.922Z,15.59
2022-11-08T00:35:26.820Z,15.59
2022-11-08T00:37:56.073Z,15.61
2022-11-08T00:40:23.938Z,15.62
2022-11-08T00:42:51.847Z,15.59
2022-11-08T00:45:20.181Z,15.61
2022-11-08T00:47:48.379Z,15.63
2022-11-08T00:50:16.408Z,15.59
2022-11-08T00:52:44.389Z,15.56
2022-11-08T00:55:13.677Z,15.49
2022-11-08T00:57:58.333Z,15.44
2022-11-08T01:00:27.299Z,15.42
2022-11-08T01:03:15.292Z,15.38
2022-11-08T01:05:43.155Z,15.37
2022-11-08T01:08:11.380Z,15.31
2022-11-08T01:10:41.938Z,15.30
2022-11-08T01:13:09.862Z,15.28
2022-11-08T01:15:38.044Z,15.29
2022-11-08T01:18:06.080Z,15.26
2022-11-08T01:20:34.020Z,15.21
2022-11-08T01:23:01.903Z,15.21
2022-11-08T01:25:29.779Z,15.19
2022-11-08T01:27:59.029Z,15.19
2022-11-08T01:30:26.904Z,15.17
2022-11-08T01:32:54.839Z,15.18
2022-11-08T01:35:22.715Z,15.17
2022-11-08T01:37:51.357Z,15.17
2022-11-08T01:40:19.428Z,15.17
2022-11-08T01:42:47.279Z,15.15
2022-11-08T01:45:16.654Z,15.16
2022-11-08T01:47:44.656Z,15.15
2022-11-08T01:50:13.250Z,15.15
2022-11-08T01:52:41.947Z,15.17
2022-11-08T01:55:12.913Z,15.20
2022-11-08T01:57:44.667Z,15.25
2022-11-08T02:00:13.579Z,15.28
2022-11-08T02:02:43.982Z,15.35
2022-11-08T02:05:25.090Z,15.18
2022-11-08T02:07:58.840Z,15.45
2022-11-08T02:10:29.665Z,15.46
2022-11-08T02:12:57.533Z,15.57
2022-11-08T02:15:25.768Z,15.57
2022-11-08T02:17:55.116Z,15.71
2022-11-08T02:20:23.010Z,15.70
2022-11-08T02:22:53.719Z,15.71
2022-11-08T02:25:22.960Z,15.69
2022-11-08T02:27:50.829Z,15.67
2022-11-08T02:30:18.744Z,15.66
2022-11-08T02:32:47.225Z,15.65
2022-11-08T02:35:16.494Z,15.61
2022-11-08T02:37:44.396Z,15.63
2022-11-08T02:40:12.731Z,15.62
2022-11-08T02:42:41.987Z,15.60
2022-11-08T02:45:10.547Z,15.57
2022-11-08T02:47:38.393Z,15.55
2022-11-08T02:50:07.309Z,15.53
2022-11-08T02:52:35.145Z,15.50
2022-11-08T02:55:03.116Z,15.52
2022-11-08T02:57:32.879Z,15.54
2022-11-08T03:00:02.171Z,15.54
2022-11-08T03:02:30.118Z,15.54
2022-11-08T03:04:58.067Z,15.56
2022-11-08T03:07:26.012Z,15.52
2022-11-08T03:09:54.187Z,15.53
2022-11-08T03:12:22.071Z,15.53
2022-11-08T03:14:49.955Z,15.42
2022-11-08T03:17:19.273Z,15.49
2022-11-08T03:19:47.307Z,15.41
2022-11-08T03:22:15.153Z,15.47
2022-11-08T03:24:43.080Z,15.42
2022-11-08T03:27:10.948Z,15.41
2022-11-08T03:29:38.809Z,15.41
2022-11-08T03:32:06.788Z,15.42
2022-11-08T03:34:36.536Z,15.48
2022-11-08T03:37:05.814Z,15.49
2022-11-08T03:39:33.693Z,15.52
2022-11-08T03:42:03.226Z,15.57
2022-11-08T03:44:31.104Z,15.60
2022-11-08T03:46:58.992Z,15.64
2022-11-08T03:49:26.835Z,15.69
2022-11-08T03:51:56.205Z,15.71
2022-11-08T03:54:24.051Z,15.76
2022-11-08T03:56:51.939Z,15.77
2022-11-08T03:59:19.804Z,15.82
2022-11-08T04:01:47.822Z,15.85
2022-11-08T04:04:15.787Z,15.69
2022-11-08T04:06:43.659Z,15.96
2022-11-08T04:09:15.529Z,16.00
2022-11-08T04:12:02.714Z,16.04
2022-11-08T04:14:48.220Z,16.03
2022-11-08T04:17:16.080Z,16.05
2022-11-08T04:20:01.426Z,16.08
2022-11-08T04:22:29.298Z,16.05
2022-11-08T04:24:58.564Z,16.06
2022-11-08T04:27:26.452Z,16.07
2022-11-08T04:29:54.310Z,16.10
2022-11-08T04:32:22.218Z,16.09
2022-11-08T04:34:50.072Z,16.12
2022-11-08T04:37:17.935Z,16.11
2022-11-08T04:39:45.792Z,16.12
2022-11-08T04:42:15.035Z,16.14
2022-11-08T04:44:42.920Z,16.07
2022-11-08T04:47:11.206Z,16.12
2022-11-08T04:49:39.670Z,16.12
2022-11-08T04:52:08.651Z,16.15
2022-11-08T04:54:36.509Z,16.14
2022-11-08T04:57:04.455Z,16.16
2022-11-08T04:59:33.680Z,16.18
2022-11-08T05:02:01.689Z,16.18
2022-11-08T05:04:29.694Z,16.15
2022-11-08T05:06:57.632Z,16.17
2022-11-08T05:09:25.479Z,16.19
2022-11-08T05:11:53.361Z,16.20
2022-11-08T05:14:21.303Z,16.23
2022-11-08T05:16:51.023Z,16.24
2022-11-08T05:19:39.160Z,16.25
2022-11-08T05:22:24.453Z,16.29
2022-11-08T05:24:52.338Z,16.29
2022-11-08T05:27:20.220Z,16.31
2022-11-08T05:29:48.117Z,16.33
2022-11-08T05:32:17.397Z,16.35
2022-11-08T05:34:45.260Z,16.37
2022-11-08T05:37:13.128Z,16.39
2022-11-08T05:39:41.028Z,16.43
2022-11-08T05:42:08.889Z,16.50
2022-11-08T05:44:36.744Z,16.48
2022-11-08T05:47:04.855Z,16.57
2022-11-08T05:49:34.295Z,16.60
2022-11-08T05:52:02.288Z,16.62
2022-11-08T05:54:30.204Z,16.65
2022-11-08T05:56:58.047Z,16.65
2022-11-08T05:59:25.961Z,16.67
2022-11-08T06:01:53.924Z,16.71
2022-11-08T06:04:21.860Z,16.72
2022-11-08T06:06:52.299Z,16.71
2022-11-08T06:09:20.253Z,16.72
2022-11-08T06:11:48.139Z,16.68
2022-11-08T06:14:16.035Z,16.69
2022-11-08T06:16:43.911Z,16.68
2022-11-08T06:19:11.788Z,16.66
2022-11-08T06:21:39.680Z,16.64
2022-11-08T06:24:09.675Z,16.62
2022-11-08T06:26:37.625Z,16.59
2022-11-08T06:29:05.554Z,16.58
2022-11-08T06:31:33.409Z,16.54
2022-11-08T06:34:01.271Z,16.52
2022-11-08T06:36:29.198Z,16.58
2022-11-08T06:38:57.147Z,16.61
2022-11-08T06:41:27.309Z,16.64
2022-11-08T06:43:55.928Z,16.69
2022-11-08T06:46:23.779Z,16.72
2022-11-08T06:48:51.899Z,16.75
2022-11-08T06:51:19.864Z,16.82
2022-11-08T06:53:47.743Z,16.84
2022-11-08T06:56:15.644Z,16.82
2022-11-08T06:58:44.889Z,16.79
2022-11-08T07:01:13.723Z,16.67
2022-11-08T07:03:41.700Z,16.73
2022-11-08T07:06:09.966Z,16.70
2022-11-08T07:08:37.957Z,16.64
2022-11-08T07:11:06.689Z,16.61
2022-11-08T07:13:34.575Z,16.48
2022-11-08T07:16:03.840Z,16.51
2022-11-08T07:18:31.845Z,16.46
2022-11-08T07:21:01.569Z,16.43
2022-11-08T07:23:30.192Z,16.41
2022-11-08T07:26:00.713Z,16.38
2022-11-08T07:28:29.181Z,16.41
2022-11-08T07:30:59.055Z,16.39
2022-11-08T07:33:28.367Z,16.39
2022-11-08T07:35:56.399Z,16.41
2022-11-08T07:38:26.059Z,16.42
2022-11-08T07:40:56.792Z,16.42
2022-11-08T07:43:24.969Z,16.42
2022-11-08T07:45:55.044Z,16.41
2022-11-08T07:48:23.002Z,16.43
2022-11-08T07:50:52.247Z,16.44
2022-11-08T07:53:20.472Z,16.48
2022-11-08T07:55:49.159Z,16.49
2022-11-08T07:58:17.152Z,16.46
2022-11-08T08:00:45.503Z,16.46
2022-11-08T08:03:14.355Z,16.54
2022-11-08T08:05:42.886Z,16.59
2022-11-08T08:08:12.719Z,16.66
2022-11-08T08:10:40.946Z,16.75
2022-11-08T08:13:08.888Z,16.85
2022-11-08T08:15:36.803Z,16.97
2022-11-08T08:18:05.655Z,17.07
2022-11-08T08:20:33.603Z,17.17
2022-11-08T08:23:01.558Z,17.21
2022-11-08T08:25:31.619Z,17.30
2022-11-08T08:28:00.907Z,17.19
2022-11-08T08:30:29.029Z,17.36
2022-11-08T08:33:26.963Z,17.36
2022-11-08T08:35:52.804Z,17.53
2022-11-08T08:38:20.700Z,17.64
2022-11-08T08:40:50.048Z,17.68
2022-11-08T08:43:18.238Z,17.75
2022-11-08T08:45:46.420Z,17.79
2022-11-08T08:48:14.293Z,17.83
2022-11-08T08:50:42.206Z,17.83
2022-11-08T08:53:10.989Z,17.70
2022-11-08T08:55:39.414Z,17.81
2022-11-08T08:58:08.680Z,17.79
2022-11-08T09:03:24.586Z,17.74
2022-11-08T09:05:52.605Z,17.73
2022-11-08T09:08:20.573Z,17.71
2022-11-08T09:10:48.534Z,17.64
2022-11-08T09:13:18.119Z,17.61
2022-11-08T09:15:46.232Z,17.53
2022-11-08T09:18:14.140Z,17.48
2022-11-08T09:20:43.887Z,17.51
2022-11-08T09:23:12.047Z,17.53
2022-11-08T09:25:39.974Z,17.63
2022-11-08T09:28:07.897Z,17.64
2022-11-08T09:30:37.284Z,17.58
2022-11-08T09:33:05.351Z,17.55
2022-11-08T09:35:33.544Z,17.52
2022-11-08T09:38:01.579Z,17.53
2022-11-08T09:40:32.384Z,17.54
2022-11-08T09:43:08.001Z,17.48
2022-11-08T09:45:37.966Z,17.59
2022-11-08T09:48:06.900Z,17.66
2022-11-08T09:50:38.578Z,17.70
2022-11-08T09:53:16.436Z,17.70
2022-11-08T09:55:46.074Z,17.72
2022-11-08T09:58:35.533Z,17.86
2022-11-08T10:01:05.068Z,17.87
2022-11-08T10:03:32.946Z,17.97
2022-11-08T10:06:14.967Z,17.80
2022-11-08T10:08:46.994Z,18.02
2022-11-08T10:11:21.125Z,18.09
2022-11-08T10:13:56.755Z,18.16
2022-11-08T10:16:30.384Z,18.20
2022-11-08T10:19:07.490Z,18.28
2022-11-08T10:21:56.724Z,18.31
2022-11-08T10:24:32.847Z,17.61
2022-11-08T10:27:00.748Z,18.29
2022-11-08T10:29:30.228Z,18.51
2022-11-08T10:32:01.313Z,18.77
2022-11-08T10:34:30.361Z,18.62
2022-11-08T10:37:01.607Z,18.60
2022-11-08T10:39:29.739Z,18.85
2022-11-08T10:42:00.055Z,19.18
2022-11-08T10:44:28.024Z,19.56
2022-11-08T10:47:00.971Z,19.85
2022-11-08T10:49:30.420Z,20.04
2022-11-08T10:51:59.463Z,20.20
2022-11-08T10:54:44.268Z,20.29
2022-11-08T10:57:13.197Z,20.33
2022-11-08T10:59:41.093Z,20.40
2022-11-08T11:02:29.169Z,20.53
2022-11-08T11:05:21.995Z,20.69
2022-11-08T11:08:02.939Z,20.91
2022-11-08T11:10:31.772Z,20.99
2022-11-08T11:13:02.664Z,20.99
2022-11-08T11:15:38.119Z,20.84
2022-11-08T11:18:18.732Z,20.86
2022-11-08T11:20:59.104Z,20.84
2022-11-08T11:23:34.099Z,20.85
2022-11-08T11:26:02.049Z,21.09
2022-11-08T11:28:29.951Z,21.17
2022-11-08T11:31:00.979Z,21.11
2022-11-08T11:33:31.055Z,20.82
2022-11-08T11:35:59.743Z,20.53
2022-11-08T11:38:34.037Z,20.40
2022-11-08T11:41:08.334Z,20.70
2022-11-08T11:43:42.647Z,21.11
2022-11-08T11:46:14.717Z,21.44
2022-11-08T11:48:47.035Z,21.75
2022-11-08T11:51:14.927Z,21.96
2022-11-08T11:53:48.459Z,22.01
2022-11-08T11:56:27.409Z,22.23
2022-11-08T11:59:08.497Z,22.31
2022-11-08T12:01:54.236Z,22.17
2022-11-08T12:04:33.624Z,22.10
2022-11-08T12:07:05.354Z,21.94
2022-11-08T12:09:42.683Z,21.81
2022-11-08T12:12:17.872Z,21.94
2022-11-08T12:14:51.330Z,21.81
2022-11-08T12:17:35.828Z,21.34
2022-11-08T12:20:20.408Z,20.87
2022-11-08T12:22:57.025Z,20.45
2022-11-08T12:25:26.036Z,20.17
2022-11-08T12:27:54.855Z,19.90
2022-11-08T12:30:25.663Z,19.70
2022-11-08T12:33:11.569Z,19.49
2022-11-08T12:35:44.360Z,19.31
2022-11-08T12:38:25.094Z,19.03
2022-11-08T12:40:55.730Z,18.74
2022-11-08T12:43:35.236Z,18.40
2022-11-08T12:46:10.335Z,18.26
2022-11-08T12:48:50.816Z,18.25
2022-11-08T12:51:22.573Z,18.66
2022-11-08T12:53:59.943Z,19.01
2022-11-08T12:56:29.835Z,18.76
2022-11-08T12:58:57.725Z,19.14
2022-11-08T13:01:25.699Z,19.79
2022-11-08T13:04:27.092Z,20.44
2022-11-08T13:06:58.975Z,21.04
2022-11-08T13:09:36.139Z,21.48
2022-11-08T13:12:08.349Z,21.88
2022-11-08T13:14:41.107Z,22.28
2022-11-08T13:17:18.093Z,22.60
2022-11-08T13:20:05.655Z,22.89
2022-11-08T13:22:47.731Z,23.13
2022-11-08T13:25:43.939Z,23.39
2022-11-08T13:28:40.531Z,23.58
2022-11-08T13:31:30.555Z,23.69
2022-11-08T13:34:12.246Z,23.75
2022-11-08T13:36:47.147Z,23.78
2022-11-08T13:39:33.845Z,23.79
2022-11-08T13:42:03.452Z,23.77
2022-11-08T13:44:57.799Z,23.72
2022-11-08T13:47:53.406Z,23.74
2022-11-08T13:50:45.861Z,23.76
2022-11-08T13:53:39.621Z,23.74
2022-11-08T13:56:26.487Z,23.66
2022-11-08T13:58:54.406Z,23.55
2022-11-08T14:01:57.117Z,23.49
2022-11-08T14:04:25.646Z,23.43
2022-11-08T14:06:58.198Z,23.42
2022-11-08T14:09:33.212Z,23.48
2022-11-08T14:12:03.973Z,23.46
2022-11-08T14:14:39.867Z,23.56
2022-11-08T14:17:40.746Z,23.26
2022-11-08T14:20:18.280Z,22.48
2022-11-08T14:22:50.212Z,22.23
2022-11-08T14:25:20.153Z,22.14
2022-11-08T14:27:49.534Z,22.16
2022-11-08T14:30:18.628Z,22.35
2022-11-08T14:32:46.533Z,22.45
2022-11-08T14:35:21.187Z,22.52
2022-11-08T14:37:49.116Z,22.56
2022-11-08T14:40:19.011Z,22.69
2022-11-08T14:42:46.882Z,22.72
2022-11-08T14:45:16.487Z,22.50
2022-11-08T14:47:44.486Z,22.03
2022-11-08T14:50:19.320Z,21.56
2022-11-08T14:52:47.257Z,21.14
2022-11-08T14:55:16.482Z,20.85
2022-11-08T14:57:44.916Z,20.57
2022-11-08T15:00:18.985Z,20.50
2022-11-08T15:02:48.278Z,20.44
2022-11-08T15:05:30.468Z,20.26
2022-11-08T15:07:58.709Z,20.00
2022-11-08T15:10:26.744Z,19.81
2022-11-08T15:12:54.700Z,19.58
2022-11-08T15:15:25.783Z,19.41
2022-11-08T15:18:12.444Z,19.22
2022-11-08T15:20:40.561Z,18.97
2022-11-08T15:23:43.417Z,18.84
2022-11-08T15:26:22.424Z,18.93
2022-11-08T15:29:06.919Z,18.98
2022-11-08T15:31:38.879Z,18.98
2022-11-08T15:34:06.824Z,18.87
2022-11-08T15:36:37.495Z,18.74
2022-11-08T15:39:11.816Z,18.44
2022-11-08T15:41:40.605Z,18.41
2022-11-08T15:44:26.098Z,18.35
2022-11-08T15:46:55.614Z,18.33
2022-11-08T15:49:26.122Z,18.28
2022-11-08T15:51:54.646Z,18.22
2022-11-08T15:54:23.258Z,18.30
2022-11-08T15:56:51.671Z,18.29
2022-11-08T15:59:22.147Z,18.17
2022-11-08T16:01:52.451Z,18.18
2022-11-08T16:04:21.751Z,18.19
2022-11-08T16:06:49.805Z,18.11
2022-11-08T16:09:17.791Z,18.05
2022-11-08T16:11:45.981Z,17.87
2022-11-08T16:14:16.246Z,17.56
2022-11-08T16:16:44.134Z,17.16
2022-11-08T16:19:18.556Z,16.85
2022-11-08T16:21:47.864Z,16.58
2022-11-08T16:24:15.749Z,16.40
2022-11-08T16:26:43.870Z,16.32
2022-11-08T16:29:17.889Z,16.28
2022-11-08T16:31:45.818Z,16.27
2022-11-08T16:34:13.696Z,16.27
2022-11-08T16:36:41.590Z,16.29
2022-11-08T16:39:14.773Z,16.34
2022-11-08T16:41:43.033Z,16.41
2022-11-08T16:44:11.325Z,16.45
2022-11-08T16:46:39.259Z,16.53
2022-11-08T16:49:07.529Z,16.56
2022-11-08T16:51:35.441Z,16.59
2022-11-08T16:54:03.898Z,16.61
2022-11-08T16:56:33.193Z,16.65
2022-11-08T16:59:01.047Z,16.68
2022-11-08T17:01:31.977Z,16.67
2022-11-08T17:03:59.914Z,16.69
2022-11-08T17:06:27.836Z,16.66
2022-11-08T17:08:55.859Z,16.67
2022-11-08T17:11:24.153Z,16.59
2022-11-08T17:13:53.714Z,16.62
2022-11-08T17:16:21.598Z,16.61
2022-11-08T17:18:53.064Z,16.68
2022-11-08T17:24:09.670Z,16.70
2022-11-08T17:26:37.755Z,16.74
2022-11-08T17:29:08.155Z,16.71
2022-11-08T17:31:36.055Z,16.74
2022-11-08T17:34:03.964Z,16.78
2022-11-08T17:36:31.824Z,16.72
2022-11-08T17:38:59.782Z,16.80
2022-11-08T17:41:27.842Z,16.81
2022-11-08T17:43:55.776Z,16.83
2022-11-08T17:46:25.037Z,16.84
2022-11-08T17:48:53.237Z,16.83
2022-11-08T17:51:21.251Z,16.84
2022-11-08T17:53:49.150Z,16.85
2022-11-08T17:56:17.453Z,16.79
2022-11-08T17:58:45.316Z,16.60
2022-11-08T18:01:13.351Z,16.65
2022-11-08T18:03:42.788Z,16.58
2022-11-08T18:06:12.424Z,16.61
2022-11-08T18:08:40.470Z,16.65
2022-11-08T18:11:08.406Z,16.61
2022-11-08T18:13:36.321Z,16.56
2022-11-08T18:16:08.192Z,16.51
2022-11-08T18:18:36.109Z,16.51
2022-11-08T18:21:05.442Z,16.31
2022-11-08T18:23:33.326Z,16.53
2022-11-08T18:26:01.513Z,16.51
2022-11-08T18:28:29.452Z,16.45
2022-11-08T18:30:57.391Z,16.44
2022-11-08T18:33:25.294Z,16.41
2022-11-08T18:35:53.149Z,16.37
2022-11-08T18:38:22.430Z,16.48
2022-11-08T18:40:50.364Z,16.52
2022-11-08T18:43:18.639Z,16.53
2022-11-08T18:45:46.792Z,16.61
2022-11-08T18:48:14.721Z,16.61
2022-11-08T18:50:42.698Z,16.67
2022-11-08T18:53:10.590Z,16.70
2022-11-08T18:55:39.871Z,16.75
2022-11-08T18:58:08.357Z,16.74
2022-11-08T19:00:36.223Z,16.74
2022-11-08T19:03:04.170Z,16.76
2022-11-08T19:05:32.072Z,16.81
2022-11-08T19:07:59.975Z,16.83
2022-11-08T19:10:27.891Z,16.72
2022-11-08T19:12:57.184Z,16.63
2022-11-08T19:15:27.218Z,16.55
2022-11-08T19:17:55.123Z,16.49
2022-11-08T19:20:24.046Z,16.48
2022-11-08T19:22:54.547Z,16.46
2022-11-08T19:25:22.427Z,16.53
2022-11-08T19:27:50.321Z,16.52
2022-11-08T19:30:19.987Z,16.49
2022-11-08T19:32:47.982Z,16.59
2022-11-08T19:35:19.006Z,16.65
2022-11-08T19:37:46.912Z,16.76
2022-11-08T19:40:15.539Z,16.78
2022-11-08T19:42:43.481Z,16.76
2022-11-08T19:45:11.883Z,16.70
2022-11-08T19:47:41.254Z,16.68
2022-11-08T19:50:09.505Z,16.69
2022-11-08T19:52:37.419Z,16.70
2022-11-08T19:55:07.109Z,16.74
2022-11-08T19:57:35.727Z,16.78
2022-11-08T20:00:04.699Z,16.79
2022-11-08T20:02:32.695Z,16.75
2022-11-08T20:05:01.981Z,16.74
2022-11-08T20:07:29.851Z,16.75
2022-11-08T20:09:57.871Z,16.74
2022-11-08T20:12:25.843Z,16.76
2022-11-08T20:14:53.880Z,16.51
2022-11-08T20:17:21.912Z,16.78
2022-11-08T20:19:51.862Z,16.76
2022-11-08T20:22:21.125Z,16.74
2022-11-08T20:24:49.076Z,16.68
2022-11-08T20:27:16.963Z,16.61
2022-11-08T20:29:47.869Z,16.57
2022-11-08T20:32:15.803Z,16.54
2022-11-08T20:34:43.751Z,16.52
2022-11-08T20:37:14.405Z,16.58
2022-11-08T20:39:44.082Z,16.61
2022-11-08T20:42:12.367Z,16.60
2022-11-08T20:44:40.244Z,16.62
2022-11-08T20:47:08.741Z,16.62
2022-11-08T20:49:36.764Z,16.66
2022-11-08T20:52:04.639Z,16.66
2022-11-08T20:54:32.540Z,16.67
2022-11-08T20:57:01.876Z,16.66
2022-11-08T20:59:29.935Z,16.62
2022-11-08T21:01:57.841Z,16.61
2022-11-08T21:04:25.941Z,16.61
2022-11-08T21:07:39.663Z,16.57
2022-11-08T21:09:49.727Z,16.53
2022-11-08T21:12:20.169Z,16.53
2022-11-08T21:14:48.547Z,16.52
2022-11-08T21:17:21.806Z,16.51
2022-11-08T21:19:51.809Z,16.53
2022-11-08T21:22:19.876Z,16.49
2022-11-08T21:24:48.980Z,16.41
2022-11-08T21:27:17.074Z,16.37
2022-11-08T21:29:46.309Z,16.35
2022-11-08T21:32:14.526Z,16.21
2022-11-08T21:34:45.958Z,16.23
2022-11-08T21:37:14.733Z,16.18
2022-11-08T21:39:42.744Z,16.15
2022-11-08T21:42:10.801Z,16.17
2022-11-08T21:44:38.914Z,16.25
2022-11-08T21:47:08.300Z,16.32
2022-11-08T21:49:36.332Z,16.33
2022-11-08T21:52:04.717Z,16.36
2022-11-08T21:54:32.624Z,16.38
2022-11-08T21:57:00.593Z,16.35
2022-11-08T21:59:28.558Z,16.42
2022-11-08T22:01:56.498Z,16.47
2022-11-08T22:04:33.659Z,16.45
2022-11-08T22:07:01.947Z,16.46
2022-11-08T22:09:30.489Z,16.42
2022-11-08T22:11:58.453Z,16.36
2022-11-08T22:14:26.362Z,16.43
2022-11-08T22:16:54.294Z,16.42
2022-11-08T22:19:22.232Z,16.44
2022-11-08T22:21:51.618Z,16.39
2022-11-08T22:24:20.433Z,16.41
2022-11-08T22:26:48.648Z,16.42
2022-11-08T22:29:17.150Z,16.41
2022-11-08T22:31:45.195Z,16.40
2022-11-08T22:34:13.083Z,16.36
2022-11-08T22:36:44.822Z,16.26
2022-11-08T22:39:15.043Z,16.23
2022-11-08T22:41:43.220Z,16.28
2022-11-08T22:44:12.265Z,16.25
2022-11-08T22:46:40.956Z,16.27
2022-11-08T22:49:08.922Z,16.24
2022-11-08T22:51:36.890Z,16.15
2022-11-08T22:54:05.120Z,16.25
2022-11-08T22:56:35.219Z,16.30
2022-11-08T22:59:03.385Z,16.33
2022-11-08T23:01:31.316Z,16.35
2022-11-08T23:03:59.208Z,16.33
2022-11-08T23:06:27.168Z,16.29
2022-11-08T23:08:55.254Z,16.26
2022-11-08T23:11:40.549Z,16.27
2022-11-08T23:14:32.442Z,16.27
2022-11-08T23:17:04.583Z,16.23
2022-11-08T23:19:49.825Z,16.31
2022-11-08T23:22:35.718Z,16.29
2022-11-08T23:25:03.631Z,16.33
2022-11-08T23:27:49.578Z,16.33
2022-11-08T23:30:36.651Z,16.38
2022-11-08T23:33:04.999Z,16.44
2022-11-08T23:35:32.901Z,16.48
2022-11-08T23:38:00.751Z,16.47
2022-11-08T23:40:46.284Z,16.35
2022-11-08T23:43:32.200Z,16.23
2022-11-08T23:46:07.485Z,16.12
2022-11-08T23:48:35.383Z,16.03
2022-11-08T23:51:03.234Z,15.97
2022-11-08T23:53:31.129Z,15.93
2022-11-08T23:55:59.230Z,15.82
2022-11-08T23:58:29.745Z,15.71
